Saint-Noel, Canada
Current Conditions -  °F | °C
As of 4:00 AM on Friday 28 Nov 2014 (Local Time) from CYYY Reporting Station
Snow Showers Snow Showers  
Wind Chill:   Ceiling: 2500
Heat Index: 18°   Visibility: 30mi
Dew Point: 10°   Wind: 7mph
Humidity: 73%   Direction: 350°N
Pressure: 30.05"   Gusts: NA
Location:  48.58°N, 67.83°W
Report Text: CYYY 280900Z 35006KT 30SM -SHSN BKN025 M08/M12 A3005 RMK SC7 SLP179
Loading
Personal Weather Stations






























Interactive Weather Map New forecast layout! Learn more

10-Day Weather Forecast

Advertisements
Track Severe Weather on mobile